createdAt,value
2019-02-16T00:01:07.185Z,15.90
2019-02-16T00:03:38.801Z,18.87
2019-02-16T00:06:10.122Z,17.23
2019-02-16T00:08:41.400Z,17.40
2019-02-16T00:11:12.717Z,18.47
2019-02-16T00:13:44.319Z,20.13
2019-02-16T00:18:45.447Z,18.32
2019-02-16T00:21:16.765Z,16.97
2019-02-16T00:23:48.396Z,16.27
2019-02-16T00:26:19.822Z,18.63
2019-02-16T00:28:51.508Z,19.93
2019-02-16T00:31:23.062Z,17.57
2019-02-16T00:33:54.418Z,13.83
2019-02-16T00:36:26.515Z,15.93
2019-02-16T00:38:57.844Z,15.10
2019-02-16T00:41:29.758Z,16.07
2019-02-16T00:44:02.381Z,18.23
2019-02-16T00:46:33.661Z,19.47
2019-02-16T00:49:05.987Z,22.90
2019-02-16T00:51:37.970Z,24.23
2019-02-16T00:54:09.286Z,27.80
2019-02-16T00:56:40.968Z,27.67
2019-02-16T00:59:12.275Z,28.03
2019-02-16T01:01:45.523Z,25.43
2019-02-16T01:04:16.888Z,33.70
2019-02-16T01:06:48.235Z,43.63
2019-02-16T01:09:19.530Z,52.83
2019-02-16T01:11:51.180Z,36.33
2019-02-16T01:14:22.760Z,31.40
2019-02-16T01:16:54.131Z,27.03
2019-02-16T01:19:26.244Z,26.00
2019-02-16T01:21:57.536Z,21.23
2019-02-16T01:24:29.114Z,17.52
2019-02-16T01:27:00.782Z,20.30
2019-02-16T01:29:32.149Z,16.67
2019-02-16T01:32:04.096Z,25.60
2019-02-16T01:34:35.470Z,19.67
2019-02-16T01:37:07.111Z,19.07
2019-02-16T01:39:38.394Z,20.80
2019-02-16T01:42:09.734Z,22.03
2019-02-16T01:44:41.043Z,23.18
2019-02-16T01:47:12.971Z,24.07
2019-02-16T01:49:44.904Z,24.03
2019-02-16T01:52:16.192Z,22.43
2019-02-16T01:54:48.516Z,22.83
2019-02-16T01:57:21.514Z,22.60
2019-02-16T01:59:53.206Z,21.03
2019-02-16T02:02:25.273Z,24.10
2019-02-16T02:04:56.709Z,21.13
2019-02-16T02:07:27.973Z,19.87
2019-02-16T02:09:59.254Z,18.42
2019-02-16T02:12:30.565Z,18.73
2019-02-16T02:15:02.138Z,23.67
2019-02-16T02:17:33.419Z,21.87
2019-02-16T02:20:04.831Z,18.90
2019-02-16T02:22:36.498Z,21.97
2019-02-16T02:25:10.007Z,20.97
2019-02-16T02:27:41.711Z,19.30
2019-02-16T02:30:12.985Z,20.17
2019-02-16T02:32:44.607Z,21.33
2019-02-16T02:35:15.995Z,19.07
2019-02-16T02:37:47.297Z,16.07
2019-02-16T02:40:19.224Z,20.00
2019-02-16T02:42:50.916Z,22.13
2019-02-16T02:45:22.621Z,19.03
2019-02-16T02:47:53.885Z,19.37
2019-02-16T02:50:25.540Z,18.67
2019-02-16T02:52:57.469Z,19.87
2019-02-16T02:55:28.753Z,20.23
2019-02-16T02:58:00.809Z,18.90
2019-02-16T03:00:33.655Z,21.42
2019-02-16T03:03:05.254Z,16.90
2019-02-16T03:05:36.598Z,17.70
2019-02-16T03:08:08.231Z,20.48
2019-02-16T03:10:39.845Z,18.07
2019-02-16T03:13:11.302Z,18.03
2019-02-16T03:15:43.235Z,24.00
2019-02-16T03:18:14.520Z,21.97
2019-02-16T03:20:46.184Z,22.17
2019-02-16T03:23:22.417Z,19.45
2019-02-16T03:26:28.969Z,21.63
2019-02-16T03:29:12.732Z,25.70
2019-02-16T03:33:06.590Z,18.53
2019-02-16T03:36:17.831Z,25.80
2019-02-16T03:39:05.951Z,24.73
2019-02-16T03:41:37.819Z,22.70
2019-02-16T03:44:09.371Z,28.33
2019-02-16T03:46:40.696Z,22.07
2019-02-16T03:49:11.966Z,23.97
2019-02-16T03:51:43.255Z,21.85
2019-02-16T03:54:14.925Z,20.77
2019-02-16T03:56:47.280Z,20.67
2019-02-16T03:59:18.838Z,22.03
2019-02-16T04:01:50.861Z,27.57
2019-02-16T04:04:22.507Z,25.07
2019-02-16T04:06:53.879Z,21.03
2019-02-16T04:09:25.200Z,24.93
2019-02-16T04:11:57.172Z,20.20
2019-02-16T04:14:28.808Z,23.42
2019-02-16T04:17:00.772Z,22.20
2019-02-16T04:19:32.045Z,19.97
2019-02-16T04:22:03.921Z,21.27
2019-02-16T04:24:36.277Z,23.10
2019-02-16T04:27:07.598Z,16.47
2019-02-16T04:29:39.192Z,21.70
2019-02-16T04:32:10.806Z,21.63
2019-02-16T04:34:42.289Z,18.92
2019-02-16T04:37:13.955Z,20.93
2019-02-16T04:39:45.291Z,19.13
2019-02-16T04:42:16.919Z,21.63
2019-02-16T04:44:48.552Z,21.10
2019-02-16T04:47:20.536Z,19.62
2019-02-16T04:49:51.839Z,21.57
2019-02-16T04:52:23.161Z,25.13
2019-02-16T04:54:54.588Z,25.73
2019-02-16T04:57:26.203Z,28.20
2019-02-16T04:59:57.784Z,31.70
2019-02-16T05:02:29.101Z,28.73
2019-02-16T05:05:00.730Z,25.13
2019-02-16T05:07:32.115Z,20.13
2019-02-16T05:10:03.454Z,34.20
2019-02-16T05:12:34.987Z,43.70
2019-02-16T05:15:06.990Z,35.70
2019-02-16T05:17:38.331Z,30.17
2019-02-16T05:20:09.784Z,30.93
2019-02-16T05:22:44.617Z,31.10
2019-02-16T05:25:15.677Z,28.40
2019-02-16T05:27:47.319Z,28.50
2019-02-16T05:30:18.903Z,28.13
2019-02-16T05:32:50.892Z,26.73
2019-02-16T05:35:22.479Z,30.73
2019-02-16T05:37:54.123Z,26.40
2019-02-16T05:40:25.793Z,22.53
2019-02-16T05:42:57.375Z,24.30
2019-02-16T05:45:29.133Z,22.33
2019-02-16T05:48:00.509Z,21.35
2019-02-16T05:50:31.853Z,20.10
2019-02-16T05:53:03.813Z,22.70
2019-02-16T05:55:35.150Z,27.57
2019-02-16T05:58:06.456Z,21.13
2019-02-16T06:00:37.718Z,24.23
2019-02-16T06:03:12.198Z,28.17
2019-02-16T06:05:43.830Z,29.43
2019-02-16T06:08:15.110Z,34.95
2019-02-16T06:10:46.475Z,37.47
2019-02-16T06:13:17.750Z,39.27
2019-02-16T06:15:49.583Z,33.40
2019-02-16T06:18:20.916Z,27.63
2019-02-16T06:20:52.211Z,28.40
2019-02-16T06:23:23.810Z,29.97
2019-02-16T06:25:55.847Z,28.40
2019-02-16T06:28:27.479Z,24.83
2019-02-16T06:30:59.151Z,30.93
2019-02-16T06:33:31.103Z,34.70
2019-02-16T06:36:20.346Z,27.02
2019-02-16T06:38:52.074Z,32.90
2019-02-16T06:41:23.538Z,29.97
2019-02-16T06:43:55.964Z,34.73
2019-02-16T06:46:27.294Z,27.20
2019-02-16T06:48:58.903Z,29.47
2019-02-16T06:51:30.504Z,27.63
2019-02-16T06:54:02.152Z,27.95
2019-02-16T06:56:40.332Z,30.70
2019-02-16T06:59:12.089Z,32.07
2019-02-16T07:01:45.764Z,35.20
2019-02-16T07:04:17.010Z,34.30
2019-02-16T07:06:48.641Z,31.60
2019-02-16T07:09:19.958Z,36.73
2019-02-16T07:11:51.582Z,38.53
2019-02-16T07:14:23.521Z,34.60
2019-02-16T07:17:12.394Z,34.27
2019-02-16T07:19:49.714Z,40.90
2019-02-16T07:22:21.460Z,28.00
2019-02-16T07:24:52.842Z,33.02
2019-02-16T07:27:24.423Z,34.00
2019-02-16T07:29:55.895Z,30.70
2019-02-16T07:32:27.537Z,14.03
2019-02-16T07:34:58.797Z,12.97
2019-02-16T07:37:30.380Z,9.30
2019-02-16T07:40:03.494Z,8.27
2019-02-16T07:42:49.665Z,6.87
2019-02-16T07:45:45.020Z,7.57
2019-02-16T07:48:57.125Z,8.30
2019-02-16T07:51:56.271Z,7.63
2019-02-16T07:54:55.529Z,9.80
2019-02-16T07:57:38.410Z,8.03
2019-02-16T08:00:29.061Z,5.50
2019-02-16T08:03:07.290Z,5.70
2019-02-16T08:05:52.080Z,6.63
2019-02-16T08:08:46.088Z,4.97
2019-02-16T08:11:29.507Z,5.87
2019-02-16T08:14:22.748Z,6.23
2019-02-16T08:17:02.295Z,5.30
2019-02-16T08:20:07.904Z,4.83
2019-02-16T08:22:46.341Z,5.87
2019-02-16T08:25:42.841Z,5.28
2019-02-16T08:28:41.868Z,6.63
2019-02-16T08:31:21.691Z,4.78
2019-02-16T08:34:17.817Z,3.20
2019-02-16T08:37:08.035Z,4.33
2019-02-16T08:39:47.112Z,3.67
2019-02-16T08:42:43.210Z,6.78
2019-02-16T08:45:33.663Z,4.65
2019-02-16T08:48:14.199Z,3.43
2019-02-16T08:51:10.718Z,6.00
2019-02-16T08:53:51.498Z,4.73
2019-02-16T08:56:51.082Z,7.37
2019-02-16T08:59:41.907Z,3.57
2019-02-16T09:02:42.690Z,5.93
2019-02-16T09:05:23.115Z,3.50
2019-02-16T09:08:06.275Z,2.98
2019-02-16T09:11:05.985Z,4.07
2019-02-16T09:13:46.766Z,3.87
2019-02-16T09:16:38.464Z,3.53
2019-02-16T09:19:29.061Z,4.20
2019-02-16T09:22:13.469Z,3.67
2019-02-16T09:24:54.242Z,4.47
2019-02-16T09:27:40.901Z,3.57
2019-02-16T09:30:31.714Z,3.53
2019-02-16T09:33:27.955Z,3.13
2019-02-16T09:36:07.855Z,5.00
2019-02-16T09:39:01.473Z,3.72
2019-02-16T09:41:38.051Z,3.47
2019-02-16T09:44:28.579Z,4.93
2019-02-16T09:47:10.352Z,3.52
2019-02-16T09:49:50.805Z,3.70
2019-02-16T09:52:44.796Z,2.85
2019-02-16T09:55:38.189Z,4.53
2019-02-16T09:58:24.189Z,3.77
2019-02-16T10:01:17.141Z,3.80
2019-02-16T10:04:07.617Z,4.63
2019-02-16T10:07:03.718Z,3.37
2019-02-16T10:09:57.040Z,3.27
2019-02-16T10:12:46.256Z,4.03
2019-02-16T10:15:48.528Z,4.97
2019-02-16T10:18:44.677Z,3.87
2019-02-16T10:21:34.501Z,5.97
2019-02-16T10:24:24.695Z,4.33
2019-02-16T10:27:05.964Z,3.92
2019-02-16T10:29:55.529Z,4.90
2019-02-16T10:32:52.296Z,3.63
2019-02-16T10:35:57.725Z,5.60
2019-02-16T10:38:50.193Z,3.90
2019-02-16T10:41:33.278Z,4.40
2019-02-16T10:44:21.796Z,4.93
2019-02-16T10:47:10.418Z,3.63
2019-02-16T10:50:01.505Z,5.83
2019-02-16T10:52:52.351Z,5.40
2019-02-16T10:55:44.957Z,4.73
2019-02-16T10:58:30.506Z,6.50
2019-02-16T11:01:10.248Z,4.57
2019-02-16T11:04:15.643Z,8.47
2019-02-16T11:07:04.954Z,4.12
2019-02-16T11:09:53.202Z,6.00
2019-02-16T11:12:35.169Z,6.30
2019-02-16T11:15:27.332Z,6.60
2019-02-16T11:18:23.303Z,5.83
2019-02-16T11:21:28.989Z,5.00
2019-02-16T11:24:05.978Z,5.60
2019-02-16T11:27:11.724Z,4.90
2019-02-16T11:30:19.959Z,5.77
2019-02-16T11:33:02.023Z,7.50
2019-02-16T11:35:43.240Z,8.73
2019-02-16T11:38:32.044Z,6.43
2019-02-16T11:41:24.163Z,8.37
2019-02-16T11:44:17.471Z,9.60
2019-02-16T11:47:07.917Z,6.67
2019-02-16T11:49:58.241Z,9.73
2019-02-16T11:52:54.246Z,8.77
2019-02-16T11:55:47.462Z,7.57
2019-02-16T11:58:35.974Z,6.43
2019-02-16T12:01:24.530Z,5.03
2019-02-16T12:04:29.837Z,5.07
2019-02-16T12:07:18.691Z,6.80
2019-02-16T12:09:57.119Z,8.13
2019-02-16T12:12:50.535Z,8.23
2019-02-16T12:15:55.660Z,6.23
2019-02-16T12:18:40.991Z,5.80
2019-02-16T12:21:36.881Z,7.20
2019-02-16T12:24:33.249Z,6.20
2019-02-16T12:27:21.978Z,9.23
2019-02-16T12:30:01.321Z,8.90
2019-02-16T12:32:51.069Z,10.13
2019-02-16T12:35:37.474Z,10.13
2019-02-16T12:38:31.256Z,13.00
2019-02-16T12:41:21.802Z,9.77
2019-02-16T12:44:21.597Z,9.73
2019-02-16T12:47:21.385Z,9.90
2019-02-16T12:50:09.074Z,9.13
2019-02-16T12:52:59.271Z,11.87
2019-02-16T12:56:02.225Z,8.57
2019-02-16T12:58:54.673Z,10.40
2019-02-16T13:01:45.305Z,10.00
2019-02-16T13:04:34.484Z,11.90
2019-02-16T13:07:24.965Z,13.17
2019-02-16T13:10:15.347Z,12.68
2019-02-16T13:13:05.694Z,9.63
2019-02-16T13:16:10.729Z,11.97
2019-02-16T13:19:03.390Z,13.67
2019-02-16T13:21:54.483Z,18.23
2019-02-16T13:24:43.414Z,14.67
2019-02-16T13:27:31.596Z,9.60
2019-02-16T13:30:10.428Z,9.40
2019-02-16T13:33:08.269Z,10.46
2019-02-16T13:35:48.997Z,12.63
2019-02-16T13:38:37.926Z,11.07
2019-02-16T13:41:21.344Z,13.47
2019-02-16T13:44:11.873Z,13.67
2019-02-16T13:47:04.178Z,7.78
2019-02-16T13:49:54.377Z,8.97
2019-02-16T13:52:47.551Z,10.95
2019-02-16T13:55:36.227Z,13.32
2019-02-16T13:58:29.204Z,8.07
2019-02-16T14:01:08.179Z,8.67
2019-02-16T14:04:05.157Z,10.37
2019-02-16T14:06:50.303Z,13.30
2019-02-16T14:09:43.556Z,12.10
2019-02-16T14:12:36.559Z,9.57
2019-02-16T14:15:30.285Z,13.33
2019-02-16T14:18:01.600Z,10.40
2019-02-16T14:20:32.968Z,9.73
2019-02-16T14:23:04.579Z,11.27
2019-02-16T14:25:55.166Z,11.10
2019-02-16T14:28:26.457Z,9.63
2019-02-16T14:30:57.770Z,10.33
2019-02-16T14:33:29.416Z,13.00
2019-02-16T14:36:00.688Z,11.63
2019-02-16T14:38:46.090Z,11.05
2019-02-16T14:41:17.422Z,8.97
2019-02-16T14:43:49.752Z,13.85
2019-02-16T14:46:21.028Z,10.93
2019-02-16T14:48:52.345Z,10.30
2019-02-16T14:51:23.622Z,12.27
2019-02-16T14:53:57.448Z,13.55
2019-02-16T14:56:28.844Z,11.28
2019-02-16T14:59:00.117Z,11.47
2019-02-16T15:01:31.389Z,13.67
2019-02-16T15:04:03.053Z,11.00
2019-02-16T15:06:36.568Z,9.03
2019-02-16T15:09:08.488Z,10.87
2019-02-16T15:11:39.801Z,11.50
2019-02-16T15:14:11.113Z,11.23
2019-02-16T15:16:42.423Z,9.77
2019-02-16T15:19:13.767Z,10.60
2019-02-16T15:21:45.395Z,8.80
2019-02-16T15:24:16.989Z,9.03
2019-02-16T15:26:48.291Z,8.33
2019-02-16T15:29:19.908Z,9.30
2019-02-16T15:31:51.812Z,9.40
2019-02-16T15:34:23.928Z,11.03
2019-02-16T15:36:55.620Z,8.70
2019-02-16T15:39:26.908Z,11.77
2019-02-16T15:41:58.270Z,10.67
2019-02-16T15:44:29.897Z,9.68
2019-02-16T15:47:01.501Z,8.87
2019-02-16T15:49:33.229Z,10.10
2019-02-16T15:52:05.250Z,13.03
2019-02-16T15:54:36.615Z,8.20
2019-02-16T15:57:07.895Z,9.03
2019-02-16T15:59:39.182Z,8.75
2019-02-16T16:02:10.532Z,11.12
2019-02-16T16:04:41.820Z,10.93
2019-02-16T16:07:16.627Z,10.97
2019-02-16T16:10:12.508Z,11.17
2019-02-16T16:13:09.226Z,8.37
2019-02-16T16:16:05.100Z,10.40
2019-02-16T16:19:04.577Z,8.30
2019-02-16T16:21:51.780Z,8.73
2019-02-16T16:24:40.890Z,10.07
2019-02-16T16:27:21.510Z,11.38
2019-02-16T16:30:17.390Z,10.67
2019-02-16T16:33:06.232Z,9.48
2019-02-16T16:35:59.359Z,8.50
2019-02-16T16:38:40.290Z,12.20
2019-02-16T16:41:24.164Z,18.40
2019-02-16T16:44:11.888Z,17.05
2019-02-16T16:46:53.844Z,11.13
2019-02-16T16:49:42.465Z,10.07
2019-02-16T16:52:42.269Z,12.33
2019-02-16T16:55:32.548Z,11.88
2019-02-16T16:58:37.826Z,9.47
2019-02-16T17:01:37.141Z,28.90
2019-02-16T17:04:20.165Z,55.17
2019-02-16T17:07:03.909Z,21.43
2019-02-16T17:10:00.320Z,13.37
2019-02-16T17:12:54.346Z,12.62
2019-02-16T17:15:48.116Z,9.57
2019-02-16T17:18:37.307Z,26.60
2019-02-16T17:21:25.735Z,60.43
2019-02-16T17:24:18.876Z,28.23
2019-02-16T17:27:09.127Z,15.17
2019-02-16T17:29:57.994Z,16.87
2019-02-16T17:33:00.319Z,24.40
2019-02-16T17:35:49.258Z,14.80
2019-02-16T17:38:45.508Z,19.23
2019-02-16T17:41:36.134Z,20.32
2019-02-16T17:44:25.004Z,12.40
2019-02-16T17:47:18.283Z,14.43
2019-02-16T17:50:03.111Z,16.07
2019-02-16T17:53:06.351Z,15.68
2019-02-16T17:56:06.197Z,11.23
2019-02-16T17:59:02.175Z,11.27
2019-02-16T18:01:51.093Z,10.33
2019-02-16T18:04:50.516Z,13.03
2019-02-16T18:07:53.202Z,18.50
2019-02-16T18:10:52.330Z,21.52
2019-02-16T18:13:37.501Z,16.30
2019-02-16T18:16:32.309Z,14.87
2019-02-16T18:19:25.862Z,13.33
2019-02-16T18:22:25.153Z,16.40
2019-02-16T18:25:30.642Z,20.40
2019-02-16T18:28:26.597Z,19.53
2019-02-16T18:31:22.883Z,17.10
2019-02-16T18:34:10.393Z,27.10
2019-02-16T18:37:03.695Z,83.20
2019-02-16T18:39:57.738Z,24.40
2019-02-16T18:42:48.550Z,25.03
2019-02-16T18:45:37.310Z,18.47
2019-02-16T18:48:22.774Z,17.73
2019-02-16T18:54:38.974Z,34.07
2019-02-16T18:57:35.177Z,20.50
2019-02-16T19:00:29.756Z,13.13
2019-02-16T19:03:20.251Z,13.97
2019-02-16T19:06:02.072Z,23.70
2019-02-16T19:08:50.940Z,28.93
2019-02-16T19:11:50.427Z,28.63
2019-02-16T19:14:39.851Z,29.83
2019-02-16T19:17:30.069Z,32.25
2019-02-16T19:20:32.780Z,31.33
2019-02-16T19:23:21.696Z,56.20
2019-02-16T19:26:07.447Z,26.37
2019-02-16T19:29:12.800Z,26.60
2019-02-16T19:32:06.502Z,27.47
2019-02-16T19:34:53.465Z,29.50
2019-02-16T19:37:46.861Z,33.37
2019-02-16T19:40:37.138Z,48.20
2019-02-16T19:43:28.050Z,30.73
2019-02-16T19:46:14.519Z,25.65
2019-02-16T19:49:11.103Z,20.63
2019-02-16T19:52:01.744Z,25.63
2019-02-16T19:55:01.053Z,22.80
2019-02-16T19:57:50.307Z,20.13
2019-02-16T20:00:49.994Z,19.43
2019-02-16T20:03:33.553Z,21.17
2019-02-16T20:06:22.582Z,24.37
2019-02-16T20:09:13.222Z,24.25
2019-02-16T20:12:03.862Z,20.37
2019-02-16T20:15:06.211Z,20.40
2019-02-16T20:17:50.972Z,19.00
2019-02-16T20:20:29.757Z,16.87
2019-02-16T20:23:35.486Z,19.95
2019-02-16T20:26:31.834Z,16.97
2019-02-16T20:29:40.507Z,21.47
2019-02-16T20:32:43.372Z,18.00
2019-02-16T20:35:42.351Z,22.97
2019-02-16T20:38:32.590Z,22.33
2019-02-16T20:41:18.107Z,21.47
2019-02-16T20:44:08.353Z,19.87
2019-02-16T20:47:08.152Z,20.67
2019-02-16T20:49:58.722Z,21.50
2019-02-16T20:52:51.848Z,21.93
2019-02-16T20:55:30.214Z,22.32
2019-02-16T20:58:32.462Z,18.35
2019-02-16T21:01:38.301Z,21.60
2019-02-16T21:04:34.290Z,18.17
2019-02-16T21:07:23.347Z,21.90
2019-02-16T21:10:13.483Z,22.80
2019-02-16T21:12:55.969Z,23.80
2019-02-16T21:15:49.299Z,21.13
2019-02-16T21:18:46.835Z,27.43
2019-02-16T21:21:36.977Z,20.53
2019-02-16T21:24:27.174Z,21.52
2019-02-16T21:27:13.465Z,19.77
2019-02-16T21:29:59.318Z,18.53
2019-02-16T21:32:42.509Z,18.42
2019-02-16T21:35:36.430Z,19.47
2019-02-16T21:38:21.452Z,25.07
2019-02-16T21:41:03.595Z,21.27
2019-02-16T21:43:56.971Z,19.27
2019-02-16T21:46:44.127Z,21.87
2019-02-16T21:49:39.475Z,30.33
2019-02-16T21:52:35.880Z,35.90
2019-02-16T21:55:35.653Z,33.37
2019-02-16T21:58:29.032Z,33.73
2019-02-16T22:01:28.726Z,31.80
2019-02-16T22:04:17.309Z,32.13
2019-02-16T22:07:01.122Z,27.35
2019-02-16T22:10:00.325Z,23.47
2019-02-16T22:12:56.518Z,25.53
2019-02-16T22:15:28.992Z,23.18
2019-02-16T22:18:00.274Z,27.35
2019-02-16T22:20:31.587Z,25.77
2019-02-16T22:23:02.937Z,28.23
2019-02-16T22:25:35.182Z,21.10
2019-02-16T22:28:07.072Z,21.43
2019-02-16T22:30:42.459Z,21.57
2019-02-16T22:33:18.091Z,22.17
2019-02-16T22:35:49.487Z,25.27
2019-02-16T22:38:21.497Z,22.47
2019-02-16T22:40:52.890Z,21.23
2019-02-16T22:43:24.218Z,21.93
2019-02-16T22:45:56.060Z,21.00
2019-02-16T22:48:28.400Z,19.80
2019-02-16T22:51:00.739Z,18.05
2019-02-16T22:53:32.858Z,22.22
2019-02-16T22:56:04.406Z,20.77
2019-02-16T22:58:35.802Z,19.60
2019-02-16T23:01:07.598Z,20.07
2019-02-16T23:03:39.530Z,21.02
2019-02-16T23:06:11.250Z,23.33
2019-02-16T23:08:43.375Z,20.27
2019-02-16T23:11:15.334Z,19.93
2019-02-16T23:13:46.923Z,20.50
2019-02-16T23:16:18.988Z,20.50
2019-02-16T23:18:50.537Z,19.73
2019-02-16T23:21:22.601Z,22.43
2019-02-16T23:23:53.989Z,24.60
2019-02-16T23:26:25.287Z,23.73
2019-02-16T23:28:56.664Z,19.67
2019-02-16T23:31:28.272Z,22.63
2019-02-16T23:33:59.873Z,25.47
2019-02-16T23:36:31.857Z,22.13
2019-02-16T23:39:07.287Z,19.60
2019-02-16T23:41:39.814Z,22.83
2019-02-16T23:44:12.051Z,21.77
2019-02-16T23:46:44.063Z,24.13
2019-02-16T23:49:15.966Z,25.10
2019-02-16T23:51:47.287Z,21.37
2019-02-16T23:54:19.408Z,24.03
2019-02-16T23:56:50.796Z,25.20
2019-02-16T23:59:22.447Z,23.07
